sensor_id;sensor_type;location;lat;lon;timestamp;P1;durP1;ratioP1;P2;durP2;ratioP2
55461;SDS011;41327;45.102;20.624;2023-12-28T00:00:41;16.35;;;10.27;;
55461;SDS011;41327;45.102;20.624;2023-12-28T00:03:07;13.95;;;9.85;;
55461;SDS011;41327;45.102;20.624;2023-12-28T00:05:32;12.95;;;9.10;;
55461;SDS011;41327;45.102;20.624;2023-12-28T00:07:58;11.85;;;8.57;;
55461;SDS011;41327;45.102;20.624;2023-12-28T00:10:25;13.60;;;7.15;;
55461;SDS011;41327;45.102;20.624;2023-12-28T00:12:51;14.77;;;9.07;;
55461;SDS011;41327;45.102;20.624;2023-12-28T00:15:17;13.63;;;7.95;;
55461;SDS011;41327;45.102;20.624;2023-12-28T00:17:42;10.07;;;6.95;;
55461;SDS011;41327;45.102;20.624;2023-12-28T00:20:08;21.10;;;8.43;;
55461;SDS011;41327;45.102;20.624;2023-12-28T00:22:34;12.93;;;7.93;;
55461;SDS011;41327;45.102;20.624;2023-12-28T00:25:02;12.45;;;7.90;;
55461;SDS011;41327;45.102;20.624;2023-12-28T00:27:28;21.30;;;7.32;;
55461;SDS011;41327;45.102;20.624;2023-12-28T00:29:54;14.70;;;8.75;;
55461;SDS011;41327;45.102;20.624;2023-12-28T00:32:19;12.20;;;8.13;;
55461;SDS011;41327;45.102;20.624;2023-12-28T00:34:45;13.57;;;7.75;;
55461;SDS011;41327;45.102;20.624;2023-12-28T00:37:10;11.18;;;7.60;;
55461;SDS011;41327;45.102;20.624;2023-12-28T00:39:36;13.63;;;9.43;;
55461;SDS011;41327;45.102;20.624;2023-12-28T00:42:02;10.95;;;6.57;;
55461;SDS011;41327;45.102;20.624;2023-12-28T00:44:28;11.48;;;6.78;;
55461;SDS011;41327;45.102;20.624;2023-12-28T00:46:54;16.60;;;6.80;;
55461;SDS011;41327;45.102;20.624;2023-12-28T00:49:19;10.60;;;6.32;;
55461;SDS011;41327;45.102;20.624;2023-12-28T00:51:45;8.52;;;6.47;;
55461;SDS011;41327;45.102;20.624;2023-12-28T00:54:10;10.65;;;7.15;;
55461;SDS011;41327;45.102;20.624;2023-12-28T00:56:36;15.82;;;8.38;;
55461;SDS011;41327;45.102;20.624;2023-12-28T00:59:01;9.60;;;5.90;;
55461;SDS011;41327;45.102;20.624;2023-12-28T01:01:27;10.82;;;7.43;;
55461;SDS011;41327;45.102;20.624;2023-12-28T01:03:55;8.15;;;7.32;;
55461;SDS011;41327;45.102;20.624;2023-12-28T01:06:21;14.95;;;6.15;;
55461;SDS011;41327;45.102;20.624;2023-12-28T01:08:47;8.32;;;5.93;;
55461;SDS011;41327;45.102;20.624;2023-12-28T01:11:12;10.18;;;5.93;;
55461;SDS011;41327;45.102;20.624;2023-12-28T01:13:38;7.85;;;6.20;;
55461;SDS011;41327;45.102;20.624;2023-12-28T01:16:04;10.98;;;6.70;;
55461;SDS011;41327;45.102;20.624;2023-12-28T01:18:29;8.98;;;5.65;;
55461;SDS011;41327;45.102;20.624;2023-12-28T01:20:55;9.32;;;6.30;;
55461;SDS011;41327;45.102;20.624;2023-12-28T01:23:20;7.47;;;4.65;;
55461;SDS011;41327;45.102;20.624;2023-12-28T01:25:46;12.10;;;6.97;;
55461;SDS011;41327;45.102;20.624;2023-12-28T01:28:12;7.38;;;5.72;;
55461;SDS011;41327;45.102;20.624;2023-12-28T01:30:37;10.57;;;6.05;;
55461;SDS011;41327;45.102;20.624;2023-12-28T01:33:03;6.93;;;4.60;;
55461;SDS011;41327;45.102;20.624;2023-12-28T01:35:29;9.40;;;5.75;;
55461;SDS011;41327;45.102;20.624;2023-12-28T01:37:54;6.35;;;4.85;;
55461;SDS011;41327;45.102;20.624;2023-12-28T01:40:20;10.40;;;4.63;;
55461;SDS011;41327;45.102;20.624;2023-12-28T01:42:45;7.05;;;4.32;;
55461;SDS011;41327;45.102;20.624;2023-12-28T01:45:11;9.82;;;5.97;;
55461;SDS011;41327;45.102;20.624;2023-12-28T01:47:37;10.60;;;5.53;;
55461;SDS011;41327;45.102;20.624;2023-12-28T01:50:02;8.15;;;4.97;;
55461;SDS011;41327;45.102;20.624;2023-12-28T01:52:28;7.80;;;5.35;;
55461;SDS011;41327;45.102;20.624;2023-12-28T01:54:54;7.60;;;4.28;;
55461;SDS011;41327;45.102;20.624;2023-12-28T01:57:20;8.98;;;5.20;;
55461;SDS011;41327;45.102;20.624;2023-12-28T01:59:46;6.13;;;5.20;;
55461;SDS011;41327;45.102;20.624;2023-12-28T02:02:12;6.25;;;5.65;;
55461;SDS011;41327;45.102;20.624;2023-12-28T02:04:37;11.13;;;5.35;;
55461;SDS011;41327;45.102;20.624;2023-12-28T02:07:03;6.95;;;4.78;;
55461;SDS011;41327;45.102;20.624;2023-12-28T02:09:30;4.10;;;3.72;;
55461;SDS011;41327;45.102;20.624;2023-12-28T02:11:55;11.98;;;5.13;;
55461;SDS011;41327;45.102;20.624;2023-12-28T02:14:21;7.22;;;6.35;;
55461;SDS011;41327;45.102;20.624;2023-12-28T02:16:59;10.05;;;5.03;;
55461;SDS011;41327;45.102;20.624;2023-12-28T02:19:31;5.30;;;4.80;;
55461;SDS011;41327;45.102;20.624;2023-12-28T02:24:28;10.32;;;5.40;;
55461;SDS011;41327;45.102;20.624;2023-12-28T02:26:53;8.27;;;5.20;;
55461;SDS011;41327;45.102;20.624;2023-12-28T02:29:19;7.05;;;4.68;;
55461;SDS011;41327;45.102;20.624;2023-12-28T02:31:52;9.27;;;5.70;;
55461;SDS011;41327;45.102;20.624;2023-12-28T02:34:27;7.15;;;5.03;;
55461;SDS011;41327;45.102;20.624;2023-12-28T02:36:55;6.72;;;5.30;;
55461;SDS011;41327;45.102;20.624;2023-12-28T02:39:22;20.20;;;5.85;;
55461;SDS011;41327;45.102;20.624;2023-12-28T02:41:49;6.68;;;5.70;;
55461;SDS011;41327;45.102;20.624;2023-12-28T02:44:15;5.90;;;4.72;;
55461;SDS011;41327;45.102;20.624;2023-12-28T02:46:40;5.50;;;4.93;;
55461;SDS011;41327;45.102;20.624;2023-12-28T02:49:06;11.02;;;5.78;;
55461;SDS011;41327;45.102;20.624;2023-12-28T02:51:31;11.63;;;5.10;;
55461;SDS011;41327;45.102;20.624;2023-12-28T02:53:57;7.47;;;5.18;;
55461;SDS011;41327;45.102;20.624;2023-12-28T02:56:22;10.25;;;5.35;;
55461;SDS011;41327;45.102;20.624;2023-12-28T02:58:48;8.05;;;5.55;;
55461;SDS011;41327;45.102;20.624;2023-12-28T03:01:13;11.77;;;6.28;;
55461;SDS011;41327;45.102;20.624;2023-12-28T03:03:39;10.25;;;4.32;;
55461;SDS011;41327;45.102;20.624;2023-12-28T03:06:04;5.30;;;3.85;;
55461;SDS011;41327;45.102;20.624;2023-12-28T03:08:30;6.38;;;5.45;;
55461;SDS011;41327;45.102;20.624;2023-12-28T03:10:55;7.85;;;4.60;;
55461;SDS011;41327;45.102;20.624;2023-12-28T03:13:21;4.43;;;4.05;;
55461;SDS011;41327;45.102;20.624;2023-12-28T03:15:46;8.25;;;5.55;;
55461;SDS011;41327;45.102;20.624;2023-12-28T03:18:12;8.20;;;4.03;;
55461;SDS011;41327;45.102;20.624;2023-12-28T03:20:37;12.02;;;5.28;;
55461;SDS011;41327;45.102;20.624;2023-12-28T03:23:03;5.45;;;4.68;;
55461;SDS011;41327;45.102;20.624;2023-12-28T03:25:29;9.80;;;5.85;;
55461;SDS011;41327;45.102;20.624;2023-12-28T03:27:55;6.88;;;4.88;;
55461;SDS011;41327;45.102;20.624;2023-12-28T03:30:20;8.93;;;4.60;;
55461;SDS011;41327;45.102;20.624;2023-12-28T03:32:46;7.72;;;4.75;;
55461;SDS011;41327;45.102;20.624;2023-12-28T03:35:11;7.30;;;3.97;;
55461;SDS011;41327;45.102;20.624;2023-12-28T03:37:37;8.85;;;5.07;;
55461;SDS011;41327;45.102;20.624;2023-12-28T03:40:03;7.15;;;5.05;;
55461;SDS011;41327;45.102;20.624;2023-12-28T03:42:29;6.15;;;4.45;;
55461;SDS011;41327;45.102;20.624;2023-12-28T03:44:54;5.10;;;4.03;;
55461;SDS011;41327;45.102;20.624;2023-12-28T03:47:20;7.75;;;5.15;;
55461;SDS011;41327;45.102;20.624;2023-12-28T03:49:45;7.63;;;4.90;;
55461;SDS011;41327;45.102;20.624;2023-12-28T03:52:11;7.30;;;4.43;;
55461;SDS011;41327;45.102;20.624;2023-12-28T03:54:37;6.85;;;4.57;;
55461;SDS011;41327;45.102;20.624;2023-12-28T03:57:02;4.32;;;3.78;;
55461;SDS011;41327;45.102;20.624;2023-12-28T03:59:28;5.60;;;4.45;;
55461;SDS011;41327;45.102;20.624;2023-12-28T04:01:53;4.32;;;3.97;;
55461;SDS011;41327;45.102;20.624;2023-12-28T04:04:19;8.65;;;4.63;;
55461;SDS011;41327;45.102;20.624;2023-12-28T04:06:44;5.70;;;4.47;;
55461;SDS011;41327;45.102;20.624;2023-12-28T04:09:13;7.20;;;4.75;;
55461;SDS011;41327;45.102;20.624;2023-12-28T04:11:39;6.00;;;3.05;;
55461;SDS011;41327;45.102;20.624;2023-12-28T04:14:04;14.70;;;4.30;;
55461;SDS011;41327;45.102;20.624;2023-12-28T04:16:30;5.07;;;4.20;;
55461;SDS011;41327;45.102;20.624;2023-12-28T04:18:56;7.03;;;4.07;;
55461;SDS011;41327;45.102;20.624;2023-12-28T04:21:22;8.23;;;4.78;;
55461;SDS011;41327;45.102;20.624;2023-12-28T04:23:47;6.35;;;5.80;;
55461;SDS011;41327;45.102;20.624;2023-12-28T04:26:13;5.53;;;4.68;;
55461;SDS011;41327;45.102;20.624;2023-12-28T04:28:39;7.03;;;5.18;;
55461;SDS011;41327;45.102;20.624;2023-12-28T04:31:05;8.45;;;5.65;;
55461;SDS011;41327;45.102;20.624;2023-12-28T04:33:31;6.57;;;5.07;;
55461;SDS011;41327;45.102;20.624;2023-12-28T04:35:57;7.30;;;4.82;;
55461;SDS011;41327;45.102;20.624;2023-12-28T04:38:25;8.55;;;4.72;;
55461;SDS011;41327;45.102;20.624;2023-12-28T04:40:51;6.07;;;4.20;;
55461;SDS011;41327;45.102;20.624;2023-12-28T04:43:16;5.65;;;5.13;;
55461;SDS011;41327;45.102;20.624;2023-12-28T04:45:42;7.63;;;5.15;;
55461;SDS011;41327;45.102;20.624;2023-12-28T04:48:08;3.78;;;3.42;;
55461;SDS011;41327;45.102;20.624;2023-12-28T04:50:33;15.05;;;6.20;;
55461;SDS011;41327;45.102;20.624;2023-12-28T04:52:59;9.90;;;4.55;;
55461;SDS011;41327;45.102;20.624;2023-12-28T04:55:24;5.15;;;3.78;;
55461;SDS011;41327;45.102;20.624;2023-12-28T04:57:49;5.15;;;3.85;;
55461;SDS011;41327;45.102;20.624;2023-12-28T05:00:15;4.75;;;3.92;;
55461;SDS011;41327;45.102;20.624;2023-12-28T05:02:41;8.30;;;5.10;;
55461;SDS011;41327;45.102;20.624;2023-12-28T05:05:07;9.70;;;5.32;;
55461;SDS011;41327;45.102;20.624;2023-12-28T05:07:34;10.25;;;3.60;;
55461;SDS011;41327;45.102;20.624;2023-12-28T05:09:59;6.50;;;5.90;;
55461;SDS011;41327;45.102;20.624;2023-12-28T05:12:25;11.15;;;5.30;;
55461;SDS011;41327;45.102;20.624;2023-12-28T05:14:51;7.80;;;4.70;;
55461;SDS011;41327;45.102;20.624;2023-12-28T05:17:16;5.32;;;4.03;;
55461;SDS011;41327;45.102;20.624;2023-12-28T05:19:42;6.15;;;3.80;;
55461;SDS011;41327;45.102;20.624;2023-12-28T05:22:07;12.18;;;4.70;;
55461;SDS011;41327;45.102;20.624;2023-12-28T05:24:36;4.78;;;4.20;;
55461;SDS011;41327;45.102;20.624;2023-12-28T05:27:01;8.45;;;5.78;;
55461;SDS011;41327;45.102;20.624;2023-12-28T05:29:27;7.57;;;4.97;;
55461;SDS011;41327;45.102;20.624;2023-12-28T05:31:53;7.00;;;5.10;;
55461;SDS011;41327;45.102;20.624;2023-12-28T05:34:18;5.68;;;5.18;;
55461;SDS011;41327;45.102;20.624;2023-12-28T05:36:44;8.95;;;6.40;;
55461;SDS011;41327;45.102;20.624;2023-12-28T05:39:11;8.18;;;4.88;;
55461;SDS011;41327;45.102;20.624;2023-12-28T05:41:38;8.38;;;4.75;;
55461;SDS011;41327;45.102;20.624;2023-12-28T05:44:05;9.20;;;6.68;;
55461;SDS011;41327;45.102;20.624;2023-12-28T05:46:30;7.10;;;4.85;;
55461;SDS011;41327;45.102;20.624;2023-12-28T05:48:56;9.05;;;5.60;;
55461;SDS011;41327;45.102;20.624;2023-12-28T05:51:21;13.95;;;5.07;;
55461;SDS011;41327;45.102;20.624;2023-12-28T05:53:47;10.80;;;6.20;;
55461;SDS011;41327;45.102;20.624;2023-12-28T05:56:12;8.02;;;5.28;;
55461;SDS011;41327;45.102;20.624;2023-12-28T05:58:38;5.78;;;5.30;;
55461;SDS011;41327;45.102;20.624;2023-12-28T06:01:04;13.52;;;5.03;;
55461;SDS011;41327;45.102;20.624;2023-12-28T06:03:30;6.90;;;5.60;;
55461;SDS011;41327;45.102;20.624;2023-12-28T06:05:56;5.13;;;4.53;;
55461;SDS011;41327;45.102;20.624;2023-12-28T06:08:22;7.93;;;5.82;;
55461;SDS011;41327;45.102;20.624;2023-12-28T06:10:47;7.72;;;5.43;;
55461;SDS011;41327;45.102;20.624;2023-12-28T06:13:13;7.32;;;6.57;;
55461;SDS011;41327;45.102;20.624;2023-12-28T06:15:38;7.18;;;6.20;;
55461;SDS011;41327;45.102;20.624;2023-12-28T06:18:04;9.02;;;4.90;;
55461;SDS011;41327;45.102;20.624;2023-12-28T06:20:30;9.52;;;6.18;;
55461;SDS011;41327;45.102;20.624;2023-12-28T06:22:55;9.23;;;5.57;;
55461;SDS011;41327;45.102;20.624;2023-12-28T06:25:20;27.95;;;6.97;;
55461;SDS011;41327;45.102;20.624;2023-12-28T06:27:46;5.75;;;5.18;;
55461;SDS011;41327;45.102;20.624;2023-12-28T06:30:12;4.88;;;4.47;;
55461;SDS011;41327;45.102;20.624;2023-12-28T06:32:38;6.47;;;4.85;;
55461;SDS011;41327;45.102;20.624;2023-12-28T06:35:03;6.90;;;5.38;;
55461;SDS011;41327;45.102;20.624;2023-12-28T06:37:29;8.80;;;4.88;;
55461;SDS011;41327;45.102;20.624;2023-12-28T06:39:55;7.97;;;5.80;;
55461;SDS011;41327;45.102;20.624;2023-12-28T06:42:20;10.32;;;5.07;;
55461;SDS011;41327;45.102;20.624;2023-12-28T06:44:45;10.82;;;5.85;;
55461;SDS011;41327;45.102;20.624;2023-12-28T06:47:11;6.75;;;6.00;;
55461;SDS011;41327;45.102;20.624;2023-12-28T06:49:36;12.02;;;7.32;;
55461;SDS011;41327;45.102;20.624;2023-12-28T06:52:02;9.60;;;6.18;;
55461;SDS011;41327;45.102;20.624;2023-12-28T06:54:28;15.50;;;8.18;;
55461;SDS011;41327;45.102;20.624;2023-12-28T06:56:53;15.35;;;11.02;;
55461;SDS011;41327;45.102;20.624;2023-12-28T06:59:18;9.02;;;6.68;;
55461;SDS011;41327;45.102;20.624;2023-12-28T07:01:44;20.83;;;10.95;;
55461;SDS011;41327;45.102;20.624;2023-12-28T07:04:10;10.32;;;6.40;;
55461;SDS011;41327;45.102;20.624;2023-12-28T07:06:36;12.63;;;8.75;;
55461;SDS011;41327;45.102;20.624;2023-12-28T07:09:01;8.70;;;5.82;;
55461;SDS011;41327;45.102;20.624;2023-12-28T07:11:27;9.18;;;6.80;;
55461;SDS011;41327;45.102;20.624;2023-12-28T07:13:53;13.13;;;7.80;;
55461;SDS011;41327;45.102;20.624;2023-12-28T07:16:18;9.70;;;7.05;;
55461;SDS011;41327;45.102;20.624;2023-12-28T07:18:44;14.68;;;10.02;;
55461;SDS011;41327;45.102;20.624;2023-12-28T07:21:09;10.10;;;8.00;;
55461;SDS011;41327;45.102;20.624;2023-12-28T07:23:35;12.20;;;8.88;;
55461;SDS011;41327;45.102;20.624;2023-12-28T07:26:01;16.58;;;8.32;;
55461;SDS011;41327;45.102;20.624;2023-12-28T07:28:26;13.48;;;9.07;;
55461;SDS011;41327;45.102;20.624;2023-12-28T07:30:53;7.97;;;6.38;;
55461;SDS011;41327;45.102;20.624;2023-12-28T07:33:18;9.98;;;5.97;;
55461;SDS011;41327;45.102;20.624;2023-12-28T07:35:44;14.13;;;4.47;;
55461;SDS011;41327;45.102;20.624;2023-12-28T07:38:09;9.95;;;5.93;;
55461;SDS011;41327;45.102;20.624;2023-12-28T07:40:35;6.35;;;5.20;;
55461;SDS011;41327;45.102;20.624;2023-12-28T07:43:00;7.13;;;4.57;;
55461;SDS011;41327;45.102;20.624;2023-12-28T07:45:26;7.00;;;4.60;;
55461;SDS011;41327;45.102;20.624;2023-12-28T07:47:51;13.00;;;5.60;;
55461;SDS011;41327;45.102;20.624;2023-12-28T07:50:17;8.60;;;5.28;;
55461;SDS011;41327;45.102;20.624;2023-12-28T07:52:43;9.30;;;5.82;;
55461;SDS011;41327;45.102;20.624;2023-12-28T07:55:09;12.98;;;7.88;;
55461;SDS011;41327;45.102;20.624;2023-12-28T07:57:35;14.85;;;8.00;;
55461;SDS011;41327;45.102;20.624;2023-12-28T08:00:01;10.25;;;8.63;;
55461;SDS011;41327;45.102;20.624;2023-12-28T08:02:27;10.13;;;8.13;;
55461;SDS011;41327;45.102;20.624;2023-12-28T08:04:53;20.00;;;12.23;;
55461;SDS011;41327;45.102;20.624;2023-12-28T08:07:18;17.25;;;8.93;;
55461;SDS011;41327;45.102;20.624;2023-12-28T08:09:44;18.58;;;7.25;;
55461;SDS011;41327;45.102;20.624;2023-12-28T08:12:09;7.53;;;5.20;;
55461;SDS011;41327;45.102;20.624;2023-12-28T08:14:35;9.18;;;6.22;;
55461;SDS011;41327;45.102;20.624;2023-12-28T08:17:00;14.75;;;7.60;;
55461;SDS011;41327;45.102;20.624;2023-12-28T08:19:26;11.40;;;6.55;;
55461;SDS011;41327;45.102;20.624;2023-12-28T08:21:51;7.65;;;6.47;;
55461;SDS011;41327;45.102;20.624;2023-12-28T08:24:16;8.20;;;6.70;;
55461;SDS011;41327;45.102;20.624;2023-12-28T08:26:42;13.13;;;7.53;;
55461;SDS011;41327;45.102;20.624;2023-12-28T08:29:08;12.65;;;7.55;;
55461;SDS011;41327;45.102;20.624;2023-12-28T08:31:33;8.48;;;4.93;;
55461;SDS011;41327;45.102;20.624;2023-12-28T08:33:59;11.70;;;7.05;;
55461;SDS011;41327;45.102;20.624;2023-12-28T08:36:24;14.18;;;7.30;;
55461;SDS011;41327;45.102;20.624;2023-12-28T08:38:50;10.60;;;6.15;;
55461;SDS011;41327;45.102;20.624;2023-12-28T08:41:19;15.02;;;9.23;;
55461;SDS011;41327;45.102;20.624;2023-12-28T08:43:45;17.08;;;10.55;;
55461;SDS011;41327;45.102;20.624;2023-12-28T08:46:11;12.90;;;9.05;;
55461;SDS011;41327;45.102;20.624;2023-12-28T08:48:37;21.63;;;12.02;;
55461;SDS011;41327;45.102;20.624;2023-12-28T08:51:02;13.20;;;6.35;;
55461;SDS011;41327;45.102;20.624;2023-12-28T08:53:28;7.55;;;6.72;;
55461;SDS011;41327;45.102;20.624;2023-12-28T08:55:53;9.60;;;6.90;;
55461;SDS011;41327;45.102;20.624;2023-12-28T08:58:19;12.82;;;7.95;;
55461;SDS011;41327;45.102;20.624;2023-12-28T09:00:44;6.82;;;6.13;;
55461;SDS011;41327;45.102;20.624;2023-12-28T09:03:11;15.30;;;7.82;;
55461;SDS011;41327;45.102;20.624;2023-12-28T09:05:36;9.00;;;8.07;;
55461;SDS011;41327;45.102;20.624;2023-12-28T09:08:02;6.97;;;6.28;;
55461;SDS011;41327;45.102;20.624;2023-12-28T09:10:28;5.40;;;5.00;;
55461;SDS011;41327;45.102;20.624;2023-12-28T09:12:53;21.20;;;12.38;;
55461;SDS011;41327;45.102;20.624;2023-12-28T09:15:19;57.70;;;28.80;;
55461;SDS011;41327;45.102;20.624;2023-12-28T09:17:44;26.80;;;14.82;;
55461;SDS011;41327;45.102;20.624;2023-12-28T09:20:10;19.90;;;11.35;;
55461;SDS011;41327;45.102;20.624;2023-12-28T09:22:37;9.60;;;7.03;;
55461;SDS011;41327;45.102;20.624;2023-12-28T09:25:02;8.05;;;5.00;;
55461;SDS011;41327;45.102;20.624;2023-12-28T09:27:29;10.63;;;5.97;;
55461;SDS011;41327;45.102;20.624;2023-12-28T09:29:54;8.82;;;6.68;;
55461;SDS011;41327;45.102;20.624;2023-12-28T09:32:20;13.02;;;5.60;;
55461;SDS011;41327;45.102;20.624;2023-12-28T09:34:45;8.10;;;5.97;;
55461;SDS011;41327;45.102;20.624;2023-12-28T09:37:10;9.30;;;5.70;;
55461;SDS011;41327;45.102;20.624;2023-12-28T09:39:36;11.85;;;7.57;;
55461;SDS011;41327;45.102;20.624;2023-12-28T09:42:06;10.32;;;6.43;;
55461;SDS011;41327;45.102;20.624;2023-12-28T09:44:49;13.50;;;6.75;;
55461;SDS011;41327;45.102;20.624;2023-12-28T09:47:14;20.50;;;9.95;;
55461;SDS011;41327;45.102;20.624;2023-12-28T09:49:40;25.17;;;13.48;;
55461;SDS011;41327;45.102;20.624;2023-12-28T09:52:07;19.05;;;11.07;;
55461;SDS011;41327;45.102;20.624;2023-12-28T09:54:34;10.57;;;8.00;;
55461;SDS011;41327;45.102;20.624;2023-12-28T09:57:00;11.55;;;7.57;;
55461;SDS011;41327;45.102;20.624;2023-12-28T09:59:26;12.25;;;6.65;;
55461;SDS011;41327;45.102;20.624;2023-12-28T10:01:52;10.55;;;9.48;;
55461;SDS011;41327;45.102;20.624;2023-12-28T10:04:20;19.70;;;11.35;;
55461;SDS011;41327;45.102;20.624;2023-12-28T10:06:46;9.75;;;7.45;;
55461;SDS011;41327;45.102;20.624;2023-12-28T10:09:12;17.02;;;9.98;;
55461;SDS011;41327;45.102;20.624;2023-12-28T10:11:37;12.02;;;9.27;;
55461;SDS011;41327;45.102;20.624;2023-12-28T10:14:03;14.00;;;8.95;;
55461;SDS011;41327;45.102;20.624;2023-12-28T10:16:29;16.50;;;10.30;;
55461;SDS011;41327;45.102;20.624;2023-12-28T10:18:55;16.50;;;8.52;;
55461;SDS011;41327;45.102;20.624;2023-12-28T10:21:25;12.27;;;8.50;;
55461;SDS011;41327;45.102;20.624;2023-12-28T10:23:51;18.35;;;12.05;;
55461;SDS011;41327;45.102;20.624;2023-12-28T10:26:20;13.68;;;8.23;;
55461;SDS011;41327;45.102;20.624;2023-12-28T10:28:45;17.83;;;10.20;;
55461;SDS011;41327;45.102;20.624;2023-12-28T10:31:11;15.38;;;9.15;;
55461;SDS011;41327;45.102;20.624;2023-12-28T10:33:37;10.85;;;8.00;;
55461;SDS011;41327;45.102;20.624;2023-12-28T10:36:05;11.95;;;8.70;;
55461;SDS011;41327;45.102;20.624;2023-12-28T10:38:34;17.70;;;7.53;;
55461;SDS011;41327;45.102;20.624;2023-12-28T10:41:00;12.98;;;8.00;;
55461;SDS011;41327;45.102;20.624;2023-12-28T10:43:26;16.65;;;7.57;;
55461;SDS011;41327;45.102;20.624;2023-12-28T10:45:52;12.90;;;7.85;;
55461;SDS011;41327;45.102;20.624;2023-12-28T10:48:21;13.60;;;8.10;;
55461;SDS011;41327;45.102;20.624;2023-12-28T10:50:54;9.80;;;6.50;;
55461;SDS011;41327;45.102;20.624;2023-12-28T10:53:38;10.60;;;8.60;;
55461;SDS011;41327;45.102;20.624;2023-12-28T10:56:26;11.57;;;7.07;;
55461;SDS011;41327;45.102;20.624;2023-12-28T11:01:41;17.25;;;8.13;;
55461;SDS011;41327;45.102;20.624;2023-12-28T11:04:09;9.10;;;7.88;;
55461;SDS011;41327;45.102;20.624;2023-12-28T11:06:38;14.13;;;8.23;;
55461;SDS011;41327;45.102;20.624;2023-12-28T11:09:07;12.75;;;9.38;;
55461;SDS011;41327;45.102;20.624;2023-12-28T11:11:34;31.35;;;9.60;;
55461;SDS011;41327;45.102;20.624;2023-12-28T11:14:00;16.38;;;11.57;;
55461;SDS011;41327;45.102;20.624;2023-12-28T11:16:27;15.93;;;9.77;;
55461;SDS011;41327;45.102;20.624;2023-12-28T11:18:54;19.20;;;8.88;;
55461;SDS011;41327;45.102;20.624;2023-12-28T11:21:20;14.40;;;10.45;;
55461;SDS011;41327;45.102;20.624;2023-12-28T11:23:47;32.45;;;11.50;;
55461;SDS011;41327;45.102;20.624;2023-12-28T11:26:17;14.05;;;8.65;;
55461;SDS011;41327;45.102;20.624;2023-12-28T11:28:43;14.07;;;7.50;;
55461;SDS011;41327;45.102;20.624;2023-12-28T11:31:14;15.48;;;9.25;;
55461;SDS011;41327;45.102;20.624;2023-12-28T11:33:44;15.00;;;9.35;;
55461;SDS011;41327;45.102;20.624;2023-12-28T11:36:10;17.25;;;9.80;;
55461;SDS011;41327;45.102;20.624;2023-12-28T11:38:37;18.67;;;8.55;;
55461;SDS011;41327;45.102;20.624;2023-12-28T11:41:04;9.93;;;7.35;;
55461;SDS011;41327;45.102;20.624;2023-12-28T11:43:34;18.05;;;9.57;;
55461;SDS011;41327;45.102;20.624;2023-12-28T11:46:00;17.17;;;8.35;;
55461;SDS011;41327;45.102;20.624;2023-12-28T11:48:25;14.25;;;8.10;;
55461;SDS011;41327;45.102;20.624;2023-12-28T11:50:54;25.70;;;17.70;;
55461;SDS011;41327;45.102;20.624;2023-12-28T11:53:21;14.32;;;9.48;;
55461;SDS011;41327;45.102;20.624;2023-12-28T11:55:47;10.75;;;6.82;;
55461;SDS011;41327;45.102;20.624;2023-12-28T11:58:12;14.18;;;8.60;;
55461;SDS011;41327;45.102;20.624;2023-12-28T12:00:39;14.30;;;9.80;;
55461;SDS011;41327;45.102;20.624;2023-12-28T12:03:05;11.63;;;8.00;;
55461;SDS011;41327;45.102;20.624;2023-12-28T12:05:31;9.98;;;7.50;;
55461;SDS011;41327;45.102;20.624;2023-12-28T12:07:57;8.57;;;7.20;;
55461;SDS011;41327;45.102;20.624;2023-12-28T12:10:22;9.45;;;6.80;;
55461;SDS011;41327;45.102;20.624;2023-12-28T12:12:48;15.68;;;7.90;;
55461;SDS011;41327;45.102;20.624;2023-12-28T12:15:17;13.27;;;8.32;;
55461;SDS011;41327;45.102;20.624;2023-12-28T12:17:43;15.13;;;7.53;;
55461;SDS011;41327;45.102;20.624;2023-12-28T12:20:09;16.38;;;10.50;;
55461;SDS011;41327;45.102;20.624;2023-12-28T12:22:35;12.32;;;7.15;;
55461;SDS011;41327;45.102;20.624;2023-12-28T12:25:01;12.95;;;7.82;;
55461;SDS011;41327;45.102;20.624;2023-12-28T12:27:29;11.32;;;7.32;;
55461;SDS011;41327;45.102;20.624;2023-12-28T12:29:54;13.38;;;9.90;;
55461;SDS011;41327;45.102;20.624;2023-12-28T12:32:20;20.75;;;10.88;;
55461;SDS011;41327;45.102;20.624;2023-12-28T12:37:46;17.80;;;9.63;;
55461;SDS011;41327;45.102;20.624;2023-12-28T12:40:14;13.73;;;7.38;;
55461;SDS011;41327;45.102;20.624;2023-12-28T12:42:41;12.57;;;8.10;;
55461;SDS011;41327;45.102;20.624;2023-12-28T12:45:07;9.55;;;7.55;;
55461;SDS011;41327;45.102;20.624;2023-12-28T12:47:33;9.13;;;6.78;;
55461;SDS011;41327;45.102;20.624;2023-12-28T12:50:02;13.20;;;9.27;;
55461;SDS011;41327;45.102;20.624;2023-12-28T12:52:28;18.48;;;9.65;;
55461;SDS011;41327;45.102;20.624;2023-12-28T12:54:56;15.95;;;9.98;;
55461;SDS011;41327;45.102;20.624;2023-12-28T12:57:22;19.55;;;8.73;;
55461;SDS011;41327;45.102;20.624;2023-12-28T12:59:49;12.15;;;8.85;;
55461;SDS011;41327;45.102;20.624;2023-12-28T13:02:15;13.05;;;8.32;;
55461;SDS011;41327;45.102;20.624;2023-12-28T13:04:42;14.60;;;8.68;;
55461;SDS011;41327;45.102;20.624;2023-12-28T13:07:07;19.30;;;9.93;;
55461;SDS011;41327;45.102;20.624;2023-12-28T13:09:34;17.33;;;9.38;;
55461;SDS011;41327;45.102;20.624;2023-12-28T13:12:00;11.85;;;8.20;;
55461;SDS011;41327;45.102;20.624;2023-12-28T13:14:26;33.22;;;10.27;;
55461;SDS011;41327;45.102;20.624;2023-12-28T13:16:52;20.52;;;10.27;;
55461;SDS011;41327;45.102;20.624;2023-12-28T13:19:20;25.00;;;11.13;;
55461;SDS011;41327;45.102;20.624;2023-12-28T13:21:45;15.18;;;8.75;;
55461;SDS011;41327;45.102;20.624;2023-12-28T13:24:11;17.67;;;9.95;;
55461;SDS011;41327;45.102;20.624;2023-12-28T13:26:36;20.00;;;10.95;;
55461;SDS011;41327;45.102;20.624;2023-12-28T13:29:02;22.35;;;9.85;;
55461;SDS011;41327;45.102;20.624;2023-12-28T13:31:28;14.85;;;9.90;;
55461;SDS011;41327;45.102;20.624;2023-12-28T13:33:53;14.32;;;8.88;;
55461;SDS011;41327;45.102;20.624;2023-12-28T13:36:18;18.05;;;10.13;;
55461;SDS011;41327;45.102;20.624;2023-12-28T13:38:44;12.73;;;8.10;;
55461;SDS011;41327;45.102;20.624;2023-12-28T13:41:09;24.52;;;11.32;;
55461;SDS011;41327;45.102;20.624;2023-12-28T13:43:35;22.80;;;14.32;;
55461;SDS011;41327;45.102;20.624;2023-12-28T13:46:01;33.38;;;15.38;;
55461;SDS011;41327;45.102;20.624;2023-12-28T13:48:29;30.65;;;16.02;;
55461;SDS011;41327;45.102;20.624;2023-12-28T13:50:55;21.85;;;12.43;;
55461;SDS011;41327;45.102;20.624;2023-12-28T13:53:21;21.00;;;10.45;;
55461;SDS011;41327;45.102;20.624;2023-12-28T13:55:46;15.55;;;10.07;;
55461;SDS011;41327;45.102;20.624;2023-12-28T13:58:12;15.77;;;9.88;;
55461;SDS011;41327;45.102;20.624;2023-12-28T14:00:37;14.68;;;9.23;;
55461;SDS011;41327;45.102;20.624;2023-12-28T14:03:05;14.52;;;10.15;;
55461;SDS011;41327;45.102;20.624;2023-12-28T14:05:30;16.73;;;9.82;;
55461;SDS011;41327;45.102;20.624;2023-12-28T14:07:56;12.40;;;9.88;;
55461;SDS011;41327;45.102;20.624;2023-12-28T14:10:22;18.60;;;9.35;;
55461;SDS011;41327;45.102;20.624;2023-12-28T14:12:47;22.60;;;11.32;;
55461;SDS011;41327;45.102;20.624;2023-12-28T14:15:13;25.00;;;11.73;;
55461;SDS011;41327;45.102;20.624;2023-12-28T14:17:41;31.38;;;15.02;;
55461;SDS011;41327;45.102;20.624;2023-12-28T14:20:07;35.80;;;13.70;;
55461;SDS011;41327;45.102;20.624;2023-12-28T14:22:36;22.67;;;12.43;;
55461;SDS011;41327;45.102;20.624;2023-12-28T14:25:03;17.90;;;11.23;;
55461;SDS011;41327;45.102;20.624;2023-12-28T14:27:29;45.45;;;20.13;;